Airfield :
LOGIN :

Register | Disclaimer

   EN    FR    IT 

 










Legend :    VFR   Marginal VFR   IFR   Intensive IFR   Very Intensive IFR
Visi :
Ceiling :
>= 8 km
>= 3000ft
5 to 8 km
1000 to 3000 ft
1500m to 5 km
500 to 1000 ft
800 to 1500m
200 to 500 ft
< 800m
< 200 ft
Symbols :   Thunderstorms  Fog  Heavy snow  Heavy precipitations  Wind > 20 kt
SIGMETs :     Misc.  Thunderstorms  Icing  Turbulence  Mountain Waves  Volcanic Ashes







- Airport Elevation : 392 ft
- IATA code : CDG
- Download approach charts


LFPG - Paris-Aeroport Charles De Gaulle

CURRENT METAR :
  • 251430Z 09005KT 050V140 CAVOK 19/13 Q1018 NOSIG

EXPIRED METARs :
  • 251400Z 10004KT 070V130 CAVOK 19/13 Q1018 NOSIG
  • 251330Z 14005KT 080V170 9999 VCSH NSC 19/13 Q1018 NOSIG
  • 251300Z 10005KT 050V140 9999 VCSH NSC 19/13 Q1018 NOSIG
  • 251230Z 11004KT 060V160 9999 VCSH NSC 19/12 Q1018 NOSIG
  • 251200Z 13004KT 080V180 9999 VCSH NSC 18/12 Q1018 NOSIG

TAF TAF LFPG
Valid from the 25 at 12:00 until the 26 at 18:00 UTC


251100Z 2512/2618 12005KT CAVOK
PROB30
TEMPO 2514/2517 FEW030TCU
PROB40
TEMPO 2603/2608 BKN009 TX21/2614Z TN13/2613Z
ATIS : +33 1 48 62 10 92
No reported NOTAMs for that airfield.



MET'MAP, your aeronautical weather chart ! - Copyright ORBIFLY December 2007 - Disclaimer

ORBIFLY MET'MAP TEAM :

Programming & Development : Alexandra Zaïnal
Concept & Development : Baudouin d'Aumeries
Co-Development & Prog : Marc-Olivier Méhu
Technical & hardware support : Manuel Goepfert

Contact : metmap@orbifly.com




SOURCES & CREDITS :

   NOAA